Time;durP1;ratioP1;P1;durP2;ratioP2;P2;SDS_P1;SDS_P2;PMS_P1;PMS_P2;Temp;Humidity;BMP_temperature;BMP_pressure;BME280_temperature;BME280_humidity;BME280_pressure;Samples;Min_cycle;Max_cycle;Signal;HPM_P1;HPM_P2
2021/08/23 00:01:56;;;;;;;10.57;7.80;;;;;;;19.31;65.06;98415.00;4995753;28;20030;-74
2021/08/23 00:04:21;;;;;;;13.05;8.73;;;;;;;19.27;65.56;98416.88;5024231;28;20079;-74
2021/08/23 00:06:47;;;;;;;10.77;8.25;;;;;;;19.33;65.62;98415.47;5015233;28;20076;-74
2021/08/23 00:09:12;;;;;;;11.10;8.65;;;;;;;19.41;65.71;98419.22;5023815;28;20041;-74
2021/08/23 00:11:37;;;;;;;10.20;7.28;;;;;;;19.48;65.78;98431.38;5021067;28;20061;-74
2021/08/23 00:14:03;;;;;;;11.70;8.40;;;;;;;19.50;65.73;98425.44;5016650;28;20053;-74
2021/08/23 00:16:28;;;;;;;11.73;8.73;;;;;;;19.45;65.53;98431.25;5021032;28;20388;-74
2021/08/23 00:18:55;;;;;;;12.73;8.65;;;;;;;19.39;65.39;98438.25;5014728;28;20046;-74
2021/08/23 00:21:23;;;;;;;10.82;7.95;;;;;;;19.40;65.75;98429.56;5013676;28;20029;-73
2021/08/23 00:23:53;;;;;;;12.93;8.82;;;;;;;19.43;65.53;98428.03;5016141;28;20026;-74
2021/08/23 00:26:19;;;;;;;10.55;8.07;;;;;;;19.40;65.71;98432.34;5018794;28;20121;-73
2021/08/23 00:28:44;;;;;;;11.63;8.25;;;;;;;19.41;65.79;98422.81;5004996;28;20538;-74
2021/08/23 00:31:10;;;;;;;12.02;8.73;;;;;;;19.32;65.34;98427.75;5017660;28;20029;-74
2021/08/23 00:33:36;;;;;;;11.73;8.45;;;;;;;19.21;65.61;98427.44;5015954;28;20025;-73
2021/08/23 00:36:01;;;;;;;11.98;8.43;;;;;;;19.15;65.77;98417.75;5020644;28;20022;-75
2021/08/23 00:38:27;;;;;;;12.80;9.00;;;;;;;19.10;65.80;98406.88;5020277;28;20136;-74
2021/08/23 00:40:52;;;;;;;12.52;8.85;;;;;;;19.07;65.85;98393.69;5019381;28;20033;-74
2021/08/23 00:43:17;;;;;;;12.15;8.82;;;;;;;19.04;65.98;98392.44;5014490;28;20459;-75
2021/08/23 00:45:43;;;;;;;12.85;9.63;;;;;;;19.00;66.33;98400.66;5021530;28;20026;-75
2021/08/23 00:48:11;;;;;;;11.48;9.45;;;;;;;19.13;66.41;98397.84;5018691;28;20042;-75
2021/08/23 00:50:38;;;;;;;12.23;8.90;;;;;;;19.24;66.67;98393.38;5017457;28;20193;-75
2021/08/23 00:53:04;;;;;;;14.63;8.88;;;;;;;19.32;66.57;98397.97;5023762;28;20033;-75
2021/08/23 00:55:32;;;;;;;11.80;9.65;;;;;;;19.36;66.32;98402.81;5016368;28;20478;-75
2021/08/23 00:57:58;;;;;;;11.85;9.55;;;;;;;19.38;66.26;98403.25;5019828;28;20040;-75
2021/08/23 01:00:24;;;;;;;12.57;9.55;;;;;;;19.34;66.33;98412.34;5015767;28;20033;-75
2021/08/23 01:03:25;;;;;;;10.63;8.57;;;;;;;19.18;66.48;98403.94;5013455;28;20133;-75
2021/08/23 01:05:51;;;;;;;11.35;9.07;;;;;;;19.01;66.27;98405.06;5001751;28;20176;-75
2021/08/23 01:08:34;;;;;;;12.43;8.80;;;;;;;18.99;66.39;98398.25;5019848;28;20792;-75
2021/08/23 01:11:00;;;;;;;11.10;8.65;;;;;;;18.99;66.72;98407.38;5019084;28;20040;-75
2021/08/23 01:13:28;;;;;;;9.73;8.38;;;;;;;18.97;66.93;98401.38;5019014;28;20025;-76
2021/08/23 01:15:54;;;;;;;12.60;8.85;;;;;;;18.88;66.65;98411.81;5020993;28;20041;-75
2021/08/23 01:18:19;;;;;;;11.98;8.65;;;;;;;18.81;67.26;98404.06;5020785;28;20022;-75
2021/08/23 01:20:48;;;;;;;13.65;8.80;;;;;;;18.74;67.29;98393.56;5018774;28;20031;-75
2021/08/23 01:23:14;;;;;;;15.30;9.50;;;;;;;18.70;67.28;98401.00;5008965;28;20543;-75
2021/08/23 01:25:42;;;;;;;11.65;8.77;;;;;;;18.72;67.57;98389.53;5019046;28;20053;-75
2021/08/23 01:28:45;;;;;;;12.13;9.15;;;;;;;18.72;67.53;98387.56;5016067;28;20498;-75
2021/08/23 01:31:14;;;;;;;12.25;8.82;;;;;;;18.71;67.41;98380.38;4992917;28;20202;-75
2021/08/23 01:33:41;;;;;;;13.00;9.82;;;;;;;18.72;68.19;98387.56;4992917;28;20026;-76
2021/08/23 01:36:06;;;;;;;12.27;8.32;;;;;;;18.69;67.71;98387.47;4993349;28;20030;-76
2021/08/23 01:38:32;;;;;;;12.27;8.98;;;;;;;18.67;67.87;98384.22;4992274;28;20462;-76
2021/08/23 01:41:00;;;;;;;11.43;8.52;;;;;;;18.66;68.11;98379.84;4992107;28;20026;-76
2021/08/23 01:43:25;;;;;;;13.23;8.75;;;;;;;18.60;67.91;98377.28;4992005;28;20031;-75
2021/08/23 01:45:51;;;;;;;10.40;8.50;;;;;;;18.58;67.93;98373.25;4992044;28;20109;-76
2021/08/23 01:48:16;;;;;;;14.75;9.13;;;;;;;18.57;68.24;98375.22;4992488;28;20459;-76
2021/08/23 01:50:42;;;;;;;12.80;9.50;;;;;;;18.55;67.85;98373.94;4992106;28;20226;-75
2021/08/23 01:53:07;;;;;;;14.75;9.35;;;;;;;18.55;68.32;98373.94;5010582;28;20030;-76
2021/08/23 01:55:32;;;;;;;12.38;9.20;;;;;;;18.54;68.56;98364.81;5011494;28;20034;-76
2021/08/23 01:57:58;;;;;;;13.25;9.00;;;;;;;18.59;68.58;98378.47;5011381;28;20422;-76
2021/08/23 02:00:23;;;;;;;13.18;9.95;;;;;;;18.65;68.42;98376.22;5007379;28;20017;-76
2021/08/23 02:02:49;;;;;;;15.05;9.77;;;;;;;18.63;68.64;98364.66;5010144;28;20491;-76
2021/08/23 02:05:14;;;;;;;13.65;9.68;;;;;;;18.60;68.88;98362.59;4998389;28;20084;-75
2021/08/23 02:07:39;;;;;;;12.10;9.38;;;;;;;18.58;68.27;98368.50;4995084;28;20026;-74
2021/08/23 02:10:07;;;;;;;12.93;8.80;;;;;;;18.54;69.08;98370.38;4995825;28;20410;-76
2021/08/23 02:12:32;;;;;;;16.42;9.90;;;;;;;18.56;69.13;98372.78;4994887;28;20026;-76
2021/08/23 02:14:58;;;;;;;13.30;9.65;;;;;;;18.57;68.86;98355.78;4995156;28;20046;-75
2021/08/23 02:17:23;;;;;;;12.02;9.70;;;;;;;18.54;68.79;98362.03;4994851;28;20034;-75
2021/08/23 02:19:48;;;;;;;13.02;9.90;;;;;;;18.55;69.22;98360.06;5008475;28;20026;-76
2021/08/23 02:22:14;;;;;;;13.13;10.07;;;;;;;18.51;69.74;98351.63;5014498;28;20548;-78
2021/08/23 02:24:39;;;;;;;14.02;10.90;;;;;;;18.47;69.15;98355.47;4986575;28;20030;-76
2021/08/23 02:27:05;;;;;;;14.63;10.68;;;;;;;18.51;69.23;98353.63;4998172;28;20463;-76
2021/08/23 02:29:30;;;;;;;14.52;11.20;;;;;;;18.58;69.31;98356.56;5013800;28;20026;-76
2021/08/23 02:31:56;;;;;;;14.23;10.65;;;;;;;18.68;69.34;98358.06;5014309;28;20025;-75
2021/08/23 02:34:21;;;;;;;15.65;10.43;;;;;;;18.77;69.51;98357.91;4997197;28;20034;-76
2021/08/23 02:36:47;;;;;;;14.95;10.68;;;;;;;18.85;69.45;98368.84;4994726;28;20502;-75
2021/08/23 02:39:12;;;;;;;13.23;9.68;;;;;;;18.89;69.30;98364.22;5006487;28;20475;-76
2021/08/23 02:41:37;;;;;;;13.18;10.30;;;;;;;18.95;69.38;98361.97;4977303;28;20050;-76
2021/08/23 02:44:03;;;;;;;13.32;9.60;;;;;;;18.98;69.17;98363.28;5004098;28;20025;-75
2021/08/23 02:46:29;;;;;;;14.93;10.07;;;;;;;19.01;69.08;98368.13;4995667;28;20042;-76
2021/08/23 02:48:54;;;;;;;13.85;10.57;;;;;;;19.00;69.27;98355.41;4994471;28;20030;-76
2021/08/23 02:51:20;;;;;;;15.57;10.73;;;;;;;19.05;69.47;98360.72;4994647;28;20026;-76
2021/08/23 02:53:45;;;;;;;13.95;10.43;;;;;;;18.98;69.05;98357.72;4978967;28;20033;-76
2021/08/23 02:56:11;;;;;;;13.90;10.68;;;;;;;18.99;69.00;98343.47;5005061;28;20057;-76
2021/08/23 02:58:36;;;;;;;12.77;10.40;;;;;;;18.99;69.11;98342.66;5007911;28;20022;-75
2021/08/23 03:01:02;;;;;;;15.80;10.75;;;;;;;18.98;68.78;98341.84;5000864;28;20482;-76
2021/08/23 03:03:28;;;;;;;14.32;11.10;;;;;;;19.02;69.28;98350.31;5009302;28;20030;-75
2021/08/23 03:05:53;;;;;;;15.00;11.10;;;;;;;19.04;68.95;98354.31;4994916;28;20110;-76
2021/08/23 03:08:18;;;;;;;14.77;10.65;;;;;;;19.08;69.17;98353.63;5001294;28;20056;-76
2021/08/23 03:10:44;;;;;;;15.55;10.75;;;;;;;19.09;69.21;98360.78;4993961;28;20474;-76
2021/08/23 03:13:10;;;;;;;13.50;10.65;;;;;;;19.11;69.20;98364.84;5006925;28;20462;-76
2021/08/23 03:15:35;;;;;;;15.05;11.48;;;;;;;19.08;69.17;98364.72;5012830;28;20482;-73
2021/08/23 03:18:01;;;;;;;16.13;11.32;;;;;;;19.04;69.37;98362.66;5012689;28;20112;-76
2021/08/23 03:20:26;;;;;;;15.18;11.60;;;;;;;19.04;69.41;98351.53;4976568;28;20054;-76
2021/08/23 03:22:51;;;;;;;15.50;11.50;;;;;;;19.06;69.36;98361.50;4993684;28;20018;-76
2021/08/23 03:25:17;;;;;;;13.45;11.30;;;;;;;19.09;69.42;98352.44;5013336;28;20025;-76
2021/08/23 03:27:42;;;;;;;16.48;11.63;;;;;;;19.05;69.70;98355.16;5002073;28;20447;-76
2021/08/23 03:30:09;;;;;;;14.20;11.77;;;;;;;19.05;69.64;98355.16;5013811;28;20440;-77
2021/08/23 03:32:34;;;;;;;13.52;11.90;;;;;;;19.03;69.44;98357.47;4989895;28;20037;-77
2021/08/23 03:35:00;;;;;;;15.65;11.45;;;;;;;19.01;69.63;98357.03;4993551;28;20030;-75
2021/08/23 03:37:26;;;;;;;16.55;11.93;;;;;;;19.02;69.73;98361.41;4998338;28;20087;-75
2021/08/23 03:39:52;;;;;;;14.95;11.88;;;;;;;18.98;69.95;98369.63;4996987;28;20040;-75
2021/08/23 03:42:17;;;;;;;15.68;11.40;;;;;;;18.97;69.92;98358.88;5013061;28;20100;-75
2021/08/23 03:44:43;;;;;;;17.77;12.15;;;;;;;18.94;70.29;98360.38;5010237;28;20892;-74
2021/08/23 03:47:08;;;;;;;15.48;11.98;;;;;;;18.92;70.28;98368.28;4976815;28;20125;-75
2021/08/23 03:49:34;;;;;;;15.80;11.48;;;;;;;18.92;70.69;98365.50;5010955;28;20049;-75
2021/08/23 03:51:59;;;;;;;16.02;12.02;;;;;;;18.89;70.54;98364.22;5013213;28;20036;-76
2021/08/23 03:54:24;;;;;;;15.50;11.45;;;;;;;18.91;71.52;98361.09;5004390;28;20037;-75
2021/08/23 03:56:50;;;;;;;17.15;12.38;;;;;;;18.92;70.83;98359.13;5012920;28;20121;-75
2021/08/23 03:59:15;;;;;;;14.65;11.20;;;;;;;18.96;70.90;98363.63;5005962;28;20066;-76
2021/08/23 04:01:41;;;;;;;14.82;11.00;;;;;;;18.99;71.06;98362.13;5001644;28;20108;-75
2021/08/23 04:04:06;;;;;;;15.02;11.10;;;;;;;19.03;71.01;98366.59;4991245;28;20030;-75
2021/08/23 04:06:32;;;;;;;15.75;11.48;;;;;;;19.02;71.04;98365.00;4992906;28;20041;-75
2021/08/23 04:08:57;;;;;;;15.55;10.85;;;;;;;19.06;71.02;98369.84;5005651;28;20030;-75
2021/08/23 04:11:22;;;;;;;16.42;11.57;;;;;;;19.10;71.17;98379.09;5012342;28;20032;-75
2021/08/23 04:13:48;;;;;;;14.15;11.07;;;;;;;19.08;70.94;98378.63;5012698;28;20050;-75
2021/08/23 04:16:15;;;;;;;12.93;10.25;;;;;;;19.05;70.70;98377.38;5012895;28;20252;-75
2021/08/23 04:18:41;;;;;;;14.30;10.10;;;;;;;19.03;71.28;98383.28;5011866;28;20028;-75
2021/08/23 04:21:06;;;;;;;12.95;10.30;;;;;;;19.01;71.08;98396.72;5012963;28;20033;-75
2021/08/23 04:23:32;;;;;;;15.02;11.32;;;;;;;19.04;71.66;98392.44;5010297;28;20037;-75
2021/08/23 04:25:57;;;;;;;12.65;10.40;;;;;;;19.04;71.39;98395.22;5004507;28;20734;-75
2021/08/23 04:28:23;;;;;;;13.75;10.63;;;;;;;19.00;71.43;98395.09;4996159;28;20030;-76
2021/08/23 04:30:48;;;;;;;13.43;10.60;;;;;;;19.00;71.43;98399.88;4996772;28;20049;-76
2021/08/23 04:33:14;;;;;;;13.55;10.90;;;;;;;19.00;71.47;98402.66;4999344;28;20034;-76
2021/08/23 04:35:39;;;;;;;14.07;10.57;;;;;;;19.00;71.42;98402.66;5012484;28;20076;-76
2021/08/23 04:38:04;;;;;;;13.27;9.80;;;;;;;19.00;71.37;98409.00;5012250;28;20072;-73
2021/08/23 04:40:30;;;;;;;12.30;9.23;;;;;;;19.02;71.69;98412.22;5007505;28;20021;-74
2021/08/23 04:42:55;;;;;;;11.13;8.93;;;;;;;19.02;71.45;98406.69;5010480;28;20071;-73
2021/08/23 04:45:21;;;;;;;11.70;9.73;;;;;;;19.06;71.50;98400.41;5011903;28;20478;-74
2021/08/23 04:47:46;;;;;;;11.35;9.15;;;;;;;19.09;71.57;98408.03;5012683;28;20168;-74
2021/08/23 04:50:12;;;;;;;10.93;8.82;;;;;;;19.07;71.38;98407.59;4995154;28;20022;-74
2021/08/23 04:52:44;;;;;;;13.02;9.02;;;;;;;19.02;71.34;98403.09;5012476;28;20033;-72
2021/08/23 04:55:12;;;;;;;12.15;9.30;;;;;;;19.03;71.61;98397.19;4999972;28;20041;-73
2021/08/23 04:57:37;;;;;;;11.20;8.85;;;;;;;19.04;71.44;98396.00;5008301;28;20104;-74
2021/08/23 05:00:06;;;;;;;11.48;9.00;;;;;;;19.07;71.71;98400.06;5012163;28;20069;-74
2021/08/23 05:02:32;;;;;;;11.32;8.45;;;;;;;19.09;71.50;98399.69;5011894;28;20105;-74
2021/08/23 05:04:57;;;;;;;11.32;8.10;;;;;;;19.06;71.73;98400.41;5012482;28;20148;-75
2021/08/23 05:07:22;;;;;;;13.18;8.23;;;;;;;19.03;71.63;98416.63;5012562;28;20025;-75
2021/08/23 05:09:48;;;;;;;11.23;8.82;;;;;;;19.04;71.52;98437.72;5012143;28;20499;-76
2021/08/23 05:12:14;;;;;;;11.05;8.20;;;;;;;19.03;71.61;98436.09;5012120;28;20028;-75
2021/08/23 05:14:40;;;;;;;11.10;8.10;;;;;;;19.01;71.60;98446.75;5012454;28;20033;-76
2021/08/23 05:17:05;;;;;;;10.05;7.80;;;;;;;19.00;71.80;98456.25;5011974;28;20068;-76
2021/08/23 05:19:31;;;;;;;10.82;7.80;;;;;;;18.97;72.28;98462.50;5011948;28;20129;-74
2021/08/23 05:21:56;;;;;;;11.93;8.45;;;;;;;18.93;71.97;98458.00;5012194;28;20025;-74
2021/08/23 05:24:21;;;;;;;16.83;12.18;;;;;;;18.88;72.05;98454.28;5011843;28;20017;-74
2021/08/23 05:26:47;;;;;;;16.33;11.20;;;;;;;18.86;71.93;98455.81;5030176;28;20036;-74
2021/08/23 05:29:12;;;;;;;15.00;11.30;;;;;;;18.86;72.22;98462.16;5030409;28;20029;-75
2021/08/23 05:31:38;;;;;;;13.90;10.00;;;;;;;18.86;72.00;98472.50;5030474;28;20064;-75
2021/08/23 05:34:03;;;;;;;12.55;9.73;;;;;;;18.84;71.87;98467.28;5030488;28;20029;-75
2021/08/23 05:36:29;;;;;;;13.57;9.30;;;;;;;18.80;72.15;98463.56;5030305;28;20105;-74
2021/08/23 05:38:54;;;;;;;15.50;9.75;;;;;;;18.79;72.22;98459.19;5016084;28;20442;-74
2021/08/23 05:41:19;;;;;;;17.52;10.95;;;;;;;18.80;72.38;98469.13;5034401;28;20121;-75
2021/08/23 05:43:45;;;;;;;14.60;10.20;;;;;;;18.81;72.46;98458.84;5033941;28;20025;-74
2021/08/23 05:46:11;;;;;;;12.05;8.10;;;;;;;18.78;72.17;98457.56;5015008;28;20072;-74
2021/08/23 05:48:36;;;;;;;9.30;6.93;;;;;;;18.73;71.97;98455.84;4992451;28;20485;-75
2021/08/23 05:51:02;;;;;;;9.23;7.88;;;;;;;18.69;72.23;98454.94;4996138;28;20019;-75
2021/08/23 05:53:28;;;;;;;6.95;5.70;;;;;;;18.69;72.31;98463.25;4996131;28;20030;-75
2021/08/23 05:55:54;;;;;;;7.63;6.18;;;;;;;18.70;72.17;98464.09;4996121;28;20490;-75
2021/08/23 05:58:19;;;;;;;8.02;5.53;;;;;;;18.69;72.35;98468.81;5003021;28;20125;-74
2021/08/23 06:00:45;;;;;;;7.32;5.60;;;;;;;18.67;72.33;98468.34;5013764;28;20026;-74
2021/08/23 06:03:10;;;;;;;9.68;6.07;;;;;;;18.65;72.28;98472.66;4995500;28;20395;-74
2021/08/23 06:05:38;;;;;;;7.05;5.70;;;;;;;18.66;72.36;98474.28;4995922;28;20372;-74
2021/08/23 06:08:06;;;;;;;11.77;7.10;;;;;;;18.67;72.19;98468.34;5005776;28;20494;-75
2021/08/23 06:10:31;;;;;;;8.93;6.07;;;;;;;18.67;72.19;98464.78;5015151;28;20071;-75
2021/08/23 06:12:57;;;;;;;9.07;6.30;;;;;;;18.66;72.23;98463.97;5013375;28;20533;-75
2021/08/23 06:15:22;;;;;;;9.27;6.05;;;;;;;18.67;72.38;98462.81;5015313;28;20046;-75
2021/08/23 06:17:47;;;;;;;8.10;6.18;;;;;;;18.69;72.43;98468.03;4995579;28;20069;-74
2021/08/23 06:20:13;;;;;;;10.05;6.63;;;;;;;18.69;72.44;98476.34;4995595;28;20030;-75
2021/08/23 06:22:39;;;;;;;6.95;6.10;;;;;;;18.68;73.48;98474.72;4999715;28;20504;-74
2021/08/23 06:25:06;;;;;;;7.78;6.35;;;;;;;18.64;72.40;98476.59;5006434;28;20057;-74
2021/08/23 06:27:32;;;;;;;7.93;6.40;;;;;;;18.65;72.42;98476.22;5014869;28;20025;-74
2021/08/23 06:29:57;;;;;;;8.80;6.35;;;;;;;18.64;72.58;98479.38;5015130;28;20025;-74
2021/08/23 06:32:23;;;;;;;8.30;6.03;;;;;;;18.62;72.69;98481.69;5014892;28;20471;-74
2021/08/23 06:34:48;;;;;;;8.43;6.38;;;;;;;18.63;72.35;98477.75;5015028;28;20137;-74
2021/08/23 06:37:13;;;;;;;7.55;5.78;;;;;;;18.66;72.58;98480.63;5014253;28;20037;-74
2021/08/23 06:39:39;;;;;;;8.32;5.97;;;;;;;18.68;72.56;98485.84;5014592;28;20080;-74
2021/08/23 06:42:04;;;;;;;10.20;6.10;;;;;;;18.67;72.72;98475.91;5014835;28;20478;-74
2021/08/23 06:44:30;;;;;;;10.52;6.00;;;;;;;18.65;72.42;98487.34;5012944;28;20022;-73
2021/08/23 06:46:55;;;;;;;8.20;6.03;;;;;;;18.63;72.52;98486.88;5011742;28;20026;-74
2021/08/23 06:49:21;;;;;;;8.65;5.43;;;;;;;18.64;72.47;98491.28;5013848;28;20054;-73
2021/08/23 06:51:47;;;;;;;6.80;5.82;;;;;;;18.64;72.63;98496.81;5017430;28;20024;-73
2021/08/23 06:54:12;;;;;;;7.53;5.95;;;;;;;18.64;72.72;98498.81;5014804;28;20108;-73
2021/08/23 06:56:37;;;;;;;7.97;6.15;;;;;;;18.62;72.65;98496.38;5013255;28;20439;-73
2021/08/23 06:59:03;;;;;;;8.52;5.95;;;;;;;18.62;72.97;98496.38;5007868;28;20538;-72
2021/08/23 07:01:28;;;;;;;8.10;6.20;;;;;;;18.64;72.84;98496.81;4999597;28;20049;-73
2021/08/23 07:03:54;;;;;;;8.43;5.60;;;;;;;18.59;73.35;98492.34;5004244;28;20034;-72
2021/08/23 07:06:20;;;;;;;7.97;6.15;;;;;;;18.56;73.25;98503.31;5012740;28;20379;-73
2021/08/23 07:08:45;;;;;;;8.57;6.60;;;;;;;18.53;73.67;98493.72;5013038;28;20112;-72
2021/08/23 07:11:11;;;;;;;7.03;5.65;;;;;;;18.51;73.09;98493.25;5013467;28;20040;-72
2021/08/23 07:13:37;;;;;;;8.10;5.95;;;;;;;18.50;73.18;98490.84;5011441;28;20124;-74
2021/08/23 07:16:03;;;;;;;8.05;6.03;;;;;;;18.50;73.00;98502.75;5011743;28;20037;-74
2021/08/23 07:18:30;;;;;;;8.00;6.00;;;;;;;18.47;73.02;98494.31;5013192;28;20026;-73
2021/08/23 07:20:55;;;;;;;9.57;6.35;;;;;;;18.45;73.02;98495.47;5012969;28;20462;-72
2021/08/23 07:23:21;;;;;;;7.45;6.00;;;;;;;18.43;73.29;98492.22;5013540;28;20033;-73
2021/08/23 07:25:46;;;;;;;7.93;6.05;;;;;;;18.47;73.34;98483.22;5013661;28;20109;-73
2021/08/23 07:28:13;;;;;;;9.85;6.38;;;;;;;18.46;73.41;98487.94;4995466;28;20026;-73
2021/08/23 07:30:39;;;;;;;6.18;5.57;;;;;;;18.45;73.27;98491.88;5013317;28;20022;-73
2021/08/23 07:33:05;;;;;;;8.57;6.13;;;;;;;18.49;73.14;98492.00;4995618;28;20037;-73
2021/08/23 07:35:30;;;;;;;9.40;6.40;;;;;;;18.51;73.34;98486.91;5013522;28;20030;-72
2021/08/23 07:37:56;;;;;;;9.35;6.30;;;;;;;18.54;73.26;98489.78;5012713;28;20156;-74
2021/08/23 07:40:21;;;;;;;8.52;6.30;;;;;;;18.58;73.37;98490.72;5013151;28;20109;-74
2021/08/23 07:42:46;;;;;;;7.72;6.00;;;;;;;18.60;73.34;98493.13;5011786;28;20030;-73
2021/08/23 07:45:14;;;;;;;7.13;6.28;;;;;;;18.62;73.22;98498.34;5013197;28;20028;-73
2021/08/23 07:47:41;;;;;;;9.07;6.20;;;;;;;18.61;73.29;98497.53;5013409;28;20022;-75
2021/08/23 07:50:07;;;;;;;7.20;5.85;;;;;;;18.65;73.41;98494.88;5009242;28;20034;-75
2021/08/23 07:52:33;;;;;;;10.25;6.55;;;;;;;18.68;73.29;98489.41;5012573;28;20022;-73
2021/08/23 07:54:58;;;;;;;8.57;6.45;;;;;;;18.70;73.51;98492.66;5011907;28;20032;-73
2021/08/23 07:57:24;;;;;;;8.50;5.90;;;;;;;18.73;73.66;98489.19;4997931;28;20036;-72
2021/08/23 07:59:49;;;;;;;8.80;5.93;;;;;;;18.74;73.09;98488.03;5011455;28;20044;-72
2021/08/23 08:02:15;;;;;;;9.13;6.20;;;;;;;18.75;73.56;98495.19;5011629;28;20026;-70
2021/08/23 08:04:40;;;;;;;9.45;7.03;;;;;;;18.75;73.41;98491.59;5011116;28;20033;-71
2021/08/23 08:07:06;;;;;;;6.82;5.82;;;;;;;18.78;73.39;98493.66;5011423;28;20393;-70
2021/08/23 08:09:31;;;;;;;7.43;6.10;;;;;;;18.84;73.79;98494.25;4994573;28;20034;-71
2021/08/23 08:11:56;;;;;;;7.25;5.88;;;;;;;18.82;73.30;98491.03;5009594;28;20034;-72
2021/08/23 08:14:23;;;;;;;8.20;6.38;;;;;;;18.84;73.30;98489.50;5009917;28;20100;-71
2021/08/23 08:16:48;;;;;;;8.05;5.82;;;;;;;18.83;73.16;98490.66;4990653;28;20042;-73
2021/08/23 08:19:14;;;;;;;6.60;5.60;;;;;;;18.80;73.41;98488.56;4994062;28;20445;-72
2021/08/23 08:21:39;;;;;;;9.07;6.70;;;;;;;18.80;73.24;98480.25;5010661;28;20497;-72
2021/08/23 08:24:05;;;;;;;7.63;5.82;;;;;;;18.84;73.42;98483.94;5005012;28;20030;-71
2021/08/23 08:26:30;;;;;;;7.57;6.43;;;;;;;18.84;73.34;98494.25;5012217;28;20467;-70
2021/08/23 08:28:56;;;;;;;6.97;6.20;;;;;;;18.83;73.32;98487.88;5012351;28;20076;-70
2021/08/23 08:31:21;;;;;;;7.40;6.50;;;;;;;18.83;73.41;98490.66;5007867;28;20501;-71
2021/08/23 08:33:47;;;;;;;7.85;6.38;;;;;;;18.85;73.21;98488.34;5008731;28;20030;-73
2021/08/23 08:36:14;;;;;;;8.73;6.80;;;;;;;18.90;73.22;98484.53;5011419;28;20463;-72
2021/08/23 08:38:41;;;;;;;9.18;6.60;;;;;;;18.92;73.45;98467.50;5011518;28;20029;-71
2021/08/23 08:41:07;;;;;;;8.68;6.72;;;;;;;18.99;73.54;98464.94;5009451;28;20048;-72
2021/08/23 08:43:32;;;;;;;10.35;6.70;;;;;;;19.06;73.43;98456.81;4997405;28;20099;-73
2021/08/23 08:45:58;;;;;;;8.52;6.50;;;;;;;19.14;73.35;98472.56;5010220;28;20021;-72
2021/08/23 08:48:25;;;;;;;7.60;6.20;;;;;;;19.25;73.48;98466.47;5007239;28;20030;-73
2021/08/23 08:50:51;;;;;;;7.95;6.20;;;;;;;19.36;73.58;98467.59;4989228;28;20034;-72
2021/08/23 08:53:17;;;;;;;7.25;5.25;;;;;;;19.48;73.45;98473.09;4992996;28;20022;-73
2021/08/23 08:55:42;;;;;;;8.77;6.15;;;;;;;19.52;73.12;98475.94;5008428;28;20363;-72
2021/08/23 08:58:08;;;;;;;6.82;5.28;;;;;;;19.59;73.35;98476.16;5011215;28;20033;-72
2021/08/23 09:00:39;;;;;;;7.72;5.50;;;;;;;19.66;73.18;98467.19;5010196;28;20470;-75
2021/08/23 09:03:07;;;;;;;5.30;4.80;;;;;;;19.72;73.15;98478.88;5011572;28;20481;-72
2021/08/23 09:05:42;;;;;;;5.47;4.90;;;;;;;19.75;73.04;98469.81;4990247;28;20029;-72
2021/08/23 09:08:08;;;;;;;5.90;5.00;;;;;;;19.76;72.94;98468.66;5011766;28;20029;-72
2021/08/23 09:10:39;;;;;;;6.85;4.75;;;;;;;19.79;72.67;98468.72;5011219;28;20549;-72
2021/08/23 09:13:10;;;;;;;5.50;4.70;;;;;;;19.79;72.75;98465.94;5013940;28;20030;-71
2021/08/23 09:15:38;;;;;;;7.13;4.50;;;;;;;19.87;72.57;98477.25;5008644;28;20077;-73
2021/08/23 09:18:08;;;;;;;6.30;4.40;;;;;;;19.88;72.27;98470.53;5017460;28;20057;-70
2021/08/23 09:20:35;;;;;;;5.30;4.43;;;;;;;19.90;72.22;98471.81;5013763;28;20037;-70
2021/08/23 09:23:13;;;;;;;5.53;4.30;;;;;;;19.90;72.04;98473.81;5014750;28;20033;-71
2021/08/23 09:25:41;;;;;;;5.53;4.15;;;;;;;19.87;71.63;98466.94;5014438;28;20033;-74
2021/08/23 09:28:08;;;;;;;4.53;3.92;;;;;;;19.79;71.51;98471.50;4993666;28;20045;-71
2021/08/23 09:30:34;;;;;;;6.32;4.10;;;;;;;19.74;71.56;98476.53;4995212;28;20040;-72
2021/08/23 09:33:03;;;;;;;6.68;4.53;;;;;;;19.71;71.64;98472.47;5008232;28;20030;-72
2021/08/23 09:35:31;;;;;;;8.32;4.32;;;;;;;19.69;71.30;98468.47;5012791;28;20109;-72
2021/08/23 09:37:56;;;;;;;5.75;4.00;;;;;;;19.67;71.34;98477.16;5015749;28;20037;-71
2021/08/23 09:40:27;;;;;;;4.90;3.97;;;;;;;19.69;71.45;98474.03;5014786;28;20029;-71
2021/08/23 09:43:03;;;;;;;6.60;4.35;;;;;;;19.68;71.40;98475.97;5013745;28;20080;-72
2021/08/23 09:45:28;;;;;;;6.68;4.60;;;;;;;19.69;71.19;98474.03;5012915;28;20026;-72
2021/08/23 09:48:03;;;;;;;5.88;4.47;;;;;;;19.69;71.33;98483.16;5003426;28;20028;-71
2021/08/23 09:50:42;;;;;;;5.93;4.55;;;;;;;19.67;71.21;98484.69;5016193;28;20566;-71
2021/08/23 09:53:12;;;;;;;5.70;4.38;;;;;;;19.67;71.28;98490.25;5026788;28;20071;-73
2021/08/23 09:55:47;;;;;;;5.60;4.28;;;;;;;19.69;71.39;98485.16;5013080;28;20025;-71
2021/08/23 09:58:13;;;;;;;6.72;4.68;;;;;;;19.70;71.76;98483.97;5032272;28;20034;-71
2021/08/23 10:00:40;;;;;;;7.43;4.45;;;;;;;19.72;71.38;98490.78;5013654;28;20060;-71
2021/08/23 10:03:14;;;;;;;7.05;4.50;;;;;;;19.73;71.30;98491.63;5031001;28;20022;-71
2021/08/23 10:05:43;;;;;;;6.32;4.75;;;;;;;19.73;71.18;98497.19;5033334;28;20439;-72
2021/08/23 10:08:10;;;;;;;6.38;5.20;;;;;;;19.78;71.23;98496.91;5031712;28;20493;-71
2021/08/23 10:10:39;;;;;;;6.75;5.22;;;;;;;19.78;71.34;98491.34;5032689;28;20079;-72
2021/08/23 10:13:04;;;;;;;6.45;4.78;;;;;;;19.78;71.19;98489.38;5015818;28;20462;-73
2021/08/23 10:15:30;;;;;;;7.85;4.90;;;;;;;19.84;71.19;98477.97;5032670;28;20128;-72
2021/08/23 10:18:00;;;;;;;7.00;5.20;;;;;;;19.86;71.29;98487.56;5031783;28;20040;-70
2021/08/23 10:20:25;;;;;;;6.78;5.10;;;;;;;19.87;71.25;98485.63;5031945;28;20021;-69
2021/08/23 10:22:51;;;;;;;5.47;4.90;;;;;;;19.97;71.35;98479.53;5031846;28;20644;-70
2021/08/23 10:25:17;;;;;;;5.82;4.85;;;;;;;20.07;71.15;98480.97;5032649;28;20363;-69
2021/08/23 10:27:42;;;;;;;5.90;5.00;;;;;;;20.21;71.05;98483.31;5033193;28;20516;-69
2021/08/23 10:30:19;;;;;;;7.28;4.72;;;;;;;20.29;71.35;98478.72;5032583;28;20587;-69
2021/08/23 10:32:45;;;;;;;5.10;4.50;;;;;;;20.38;70.99;98468.97;5030584;28;20029;-70
2021/08/23 10:35:24;;;;;;;7.88;5.00;;;;;;;20.55;71.21;98477.34;5030357;28;20497;-68
2021/08/23 10:37:53;;;;;;;6.38;4.47;;;;;;;20.62;70.94;98474.69;5028396;28;20030;-69
2021/08/23 10:40:35;;;;;;;5.43;4.38;;;;;;;20.70;70.53;98473.69;5029143;28;20494;-72
2021/08/23 10:43:14;;;;;;;4.70;4.05;;;;;;;20.79;70.56;98467.94;5031123;28;20029;-73
2021/08/23 10:45:39;;;;;;;5.63;4.53;;;;;;;20.87;70.40;98475.28;5031527;28;20026;-74
2021/08/23 10:48:13;;;;;;;6.47;4.70;;;;;;;20.93;69.70;98473.03;5031448;28;20110;-74
2021/08/23 10:50:38;;;;;;;5.97;4.45;;;;;;;21.01;69.77;98463.63;5032344;28;20033;-74
2021/08/23 10:53:14;;;;;;;4.78;4.03;;;;;;;21.11;69.37;98463.03;5032475;28;20048;-73
2021/08/23 10:55:40;;;;;;;6.78;4.68;;;;;;;21.18;69.24;98465.19;5031745;28;20022;-73
2021/08/23 10:58:08;;;;;;;6.22;4.80;;;;;;;21.23;69.12;98462.06;5031764;28;20036;-73
2021/08/23 11:00:39;;;;;;;7.07;4.25;;;;;;;21.35;68.83;98457.53;5030648;28;20032;-73
2021/08/23 11:03:04;;;;;;;6.95;4.57;;;;;;;21.40;68.57;98462.81;5032101;28;20568;-73
2021/08/23 11:05:30;;;;;;;10.15;5.10;;;;;;;21.50;68.64;98458.59;5032236;28;20021;-73
2021/08/23 11:08:07;;;;;;;6.70;4.65;;;;;;;21.61;68.27;98459.63;5032648;28;20017;-74
2021/08/23 11:10:34;;;;;;;8.30;5.53;;;;;;;21.66;68.14;98458.53;5031954;28;20065;-73
2021/08/23 11:13:11;;;;;;;6.55;4.65;;;;;;;21.71;67.89;98452.63;5031830;28;20025;-74
2021/08/23 11:15:36;;;;;;;6.25;5.03;;;;;;;21.81;67.41;98456.78;5031237;28;20149;-74
2021/08/23 11:18:09;;;;;;;6.82;4.35;;;;;;;21.81;67.21;98456.78;5031943;28;20108;-74
2021/08/23 11:20:39;;;;;;;9.75;4.70;;;;;;;21.85;67.29;98444.53;5030811;28;20033;-74
2021/08/23 11:23:14;;;;;;;5.50;4.60;;;;;;;21.99;67.39;98451.53;5031655;28;20028;-74
2021/08/23 11:25:43;;;;;;;5.88;4.55;;;;;;;22.08;67.37;98442.91;5030901;28;20033;-73